Airport Name : Bangalore

Other Name : Bangalore

ICAO : VOBG

IATA : BLR

FAA :

Latitude : 12.949986

Longitude : 77.668206

Country : India

Local Date and Time : 29 Nov 2020 22:01

 

TAF (Terminal Aerodrome Forecast)

TAF VOBG 291400Z 2915/2924 09005KT 6000 SCT012 SCT080 TEMPO 2915/2921 4000 RA DZ SCT008 SCT012 BKN080 BECMG 2922/2923 3000 BR SCT008 SCT012

 

METAR (METeorological Aerodrome Report)

VOBG 291600Z 05003KT 4000 -DZ SCT008 SCT012 BKN080 21/21 Q1019 NOSIG

VOBG 291500Z VRB02KT 4000 -DZ SCT012 BKN080 21/20 Q1018 NOSIG

VOBG 291400Z VRB02KT 6000 SCT012 BKN080 22/18 Q1017 NOSIG

VOBG 291300Z 07003KT 6000 SCT012 BKN080 23/18 Q1016 NOSIG

To Charter a Jet Click here.